sensor_id;sensor_type;location;lat;lon;timestamp;P1;durP1;ratioP1;P2;durP2;ratioP2
59127;SDS011;44912;52.754;5.994;2023-06-22T00:00:49;26.90;;;23.45;;
59127;SDS011;44912;52.754;5.994;2023-06-22T00:03:15;28.70;;;24.10;;
59127;SDS011;44912;52.754;5.994;2023-06-22T00:05:42;30.15;;;25.02;;
59127;SDS011;44912;52.754;5.994;2023-06-22T00:08:07;27.45;;;23.85;;
59127;SDS011;44912;52.754;5.994;2023-06-22T00:10:33;28.35;;;23.83;;
59127;SDS011;44912;52.754;5.994;2023-06-22T00:12:58;27.23;;;24.15;;
59127;SDS011;44912;52.754;5.994;2023-06-22T00:15:24;25.13;;;22.42;;
59127;SDS011;44912;52.754;5.994;2023-06-22T00:17:50;29.13;;;26.00;;
59127;SDS011;44912;52.754;5.994;2023-06-22T00:20:16;26.65;;;23.88;;
59127;SDS011;44912;52.754;5.994;2023-06-22T00:22:43;28.95;;;24.83;;
59127;SDS011;44912;52.754;5.994;2023-06-22T00:25:09;29.40;;;25.33;;
59127;SDS011;44912;52.754;5.994;2023-06-22T00:27:35;27.15;;;23.50;;
59127;SDS011;44912;52.754;5.994;2023-06-22T00:30:01;28.52;;;24.63;;
59127;SDS011;44912;52.754;5.994;2023-06-22T00:32:27;29.77;;;26.58;;
59127;SDS011;44912;52.754;5.994;2023-06-22T00:34:53;28.20;;;24.83;;
59127;SDS011;44912;52.754;5.994;2023-06-22T00:37:18;26.38;;;23.55;;
59127;SDS011;44912;52.754;5.994;2023-06-22T00:39:44;26.48;;;23.52;;
59127;SDS011;44912;52.754;5.994;2023-06-22T00:42:10;23.23;;;20.63;;
59127;SDS011;44912;52.754;5.994;2023-06-22T00:44:36;30.75;;;25.35;;
59127;SDS011;44912;52.754;5.994;2023-06-22T00:47:01;25.45;;;22.75;;
59127;SDS011;44912;52.754;5.994;2023-06-22T00:49:28;25.17;;;22.48;;
59127;SDS011;44912;52.754;5.994;2023-06-22T00:51:54;24.13;;;21.55;;
59127;SDS011;44912;52.754;5.994;2023-06-22T00:54:21;22.70;;;20.25;;
59127;SDS011;44912;52.754;5.994;2023-06-22T00:56:50;23.02;;;20.60;;
59127;SDS011;44912;52.754;5.994;2023-06-22T00:59:19;25.35;;;22.58;;
59127;SDS011;44912;52.754;5.994;2023-06-22T01:01:45;24.48;;;21.25;;
59127;SDS011;44912;52.754;5.994;2023-06-22T01:04:11;23.63;;;21.00;;
59127;SDS011;44912;52.754;5.994;2023-06-22T01:06:38;25.15;;;22.45;;
59127;SDS011;44912;52.754;5.994;2023-06-22T01:09:19;24.35;;;21.83;;
59127;SDS011;44912;52.754;5.994;2023-06-22T01:11:52;29.75;;;25.30;;
59127;SDS011;44912;52.754;5.994;2023-06-22T01:14:27;26.15;;;23.10;;
59127;SDS011;44912;52.754;5.994;2023-06-22T01:17:00;26.42;;;23.48;;
59127;SDS011;44912;52.754;5.994;2023-06-22T01:19:43;25.33;;;22.63;;
59127;SDS011;44912;52.754;5.994;2023-06-22T01:22:19;29.70;;;26.20;;
59127;SDS011;44912;52.754;5.994;2023-06-22T01:24:59;26.75;;;24.00;;
59127;SDS011;44912;52.754;5.994;2023-06-22T01:30:27;25.33;;;22.73;;
59127;SDS011;44912;52.754;5.994;2023-06-22T01:32:54;25.60;;;22.90;;
59127;SDS011;44912;52.754;5.994;2023-06-22T01:35:22;25.27;;;22.45;;
59127;SDS011;44912;52.754;5.994;2023-06-22T01:37:49;26.77;;;23.70;;
59127;SDS011;44912;52.754;5.994;2023-06-22T01:40:15;27.45;;;24.27;;
59127;SDS011;44912;52.754;5.994;2023-06-22T01:42:41;23.98;;;21.42;;
59127;SDS011;44912;52.754;5.994;2023-06-22T01:45:09;25.92;;;23.10;;
59127;SDS011;44912;52.754;5.994;2023-06-22T01:47:36;27.23;;;23.25;;
59127;SDS011;44912;52.754;5.994;2023-06-22T01:50:02;26.33;;;23.13;;
59127;SDS011;44912;52.754;5.994;2023-06-22T01:52:28;28.27;;;25.25;;
59127;SDS011;44912;52.754;5.994;2023-06-22T01:54:54;29.95;;;25.42;;
59127;SDS011;44912;52.754;5.994;2023-06-22T01:57:19;29.02;;;25.38;;
59127;SDS011;44912;52.754;5.994;2023-06-22T01:59:59;27.77;;;24.40;;
59127;SDS011;44912;52.754;5.994;2023-06-22T02:02:31;29.15;;;25.27;;
59127;SDS011;44912;52.754;5.994;2023-06-22T02:05:10;30.13;;;26.20;;
59127;SDS011;44912;52.754;5.994;2023-06-22T02:07:44;28.20;;;25.17;;
59127;SDS011;44912;52.754;5.994;2023-06-22T02:10:16;32.30;;;26.75;;
59127;SDS011;44912;52.754;5.994;2023-06-22T02:12:44;33.97;;;28.10;;
59127;SDS011;44912;52.754;5.994;2023-06-22T02:15:11;31.52;;;26.63;;
59127;SDS011;44912;52.754;5.994;2023-06-22T02:17:37;28.85;;;22.35;;
59127;SDS011;44912;52.754;5.994;2023-06-22T02:20:03;30.83;;;21.23;;
59127;SDS011;44912;52.754;5.994;2023-06-22T02:22:33;47.90;;;18.50;;
59127;SDS011;44912;52.754;5.994;2023-06-22T02:24:58;24.60;;;18.85;;
59127;SDS011;44912;52.754;5.994;2023-06-22T02:27:24;22.67;;;20.38;;
59127;SDS011;44912;52.754;5.994;2023-06-22T02:29:49;24.45;;;21.98;;
59127;SDS011;44912;52.754;5.994;2023-06-22T02:32:15;24.60;;;22.10;;
59127;SDS011;44912;52.754;5.994;2023-06-22T02:34:42;29.98;;;26.50;;
59127;SDS011;44912;52.754;5.994;2023-06-22T02:37:12;28.42;;;25.35;;
59127;SDS011;44912;52.754;5.994;2023-06-22T02:39:41;30.60;;;27.38;;
59127;SDS011;44912;52.754;5.994;2023-06-22T02:42:07;33.00;;;29.48;;
59127;SDS011;44912;52.754;5.994;2023-06-22T02:44:33;36.42;;;30.02;;
59127;SDS011;44912;52.754;5.994;2023-06-22T02:46:58;32.17;;;28.73;;
59127;SDS011;44912;52.754;5.994;2023-06-22T02:49:24;34.50;;;29.25;;
59127;SDS011;44912;52.754;5.994;2023-06-22T02:51:50;31.52;;;28.10;;
59127;SDS011;44912;52.754;5.994;2023-06-22T02:54:16;27.92;;;24.92;;
59127;SDS011;44912;52.754;5.994;2023-06-22T02:56:41;37.47;;;24.67;;
59127;SDS011;44912;52.754;5.994;2023-06-22T02:59:09;28.23;;;25.02;;
59127;SDS011;44912;52.754;5.994;2023-06-22T03:01:36;27.55;;;24.65;;
59127;SDS011;44912;52.754;5.994;2023-06-22T03:04:05;27.27;;;24.42;;
59127;SDS011;44912;52.754;5.994;2023-06-22T03:06:32;30.58;;;26.88;;
59127;SDS011;44912;52.754;5.994;2023-06-22T03:09:04;31.35;;;27.50;;
59127;SDS011;44912;52.754;5.994;2023-06-22T03:11:30;32.80;;;29.30;;
59127;SDS011;44912;52.754;5.994;2023-06-22T03:13:56;35.72;;;29.60;;
59127;SDS011;44912;52.754;5.994;2023-06-22T03:16:22;31.48;;;27.90;;
59127;SDS011;44912;52.754;5.994;2023-06-22T03:18:48;33.45;;;28.98;;
59127;SDS011;44912;52.754;5.994;2023-06-22T03:21:13;34.20;;;30.45;;
59127;SDS011;44912;52.754;5.994;2023-06-22T03:23:40;34.30;;;28.58;;
59127;SDS011;44912;52.754;5.994;2023-06-22T03:26:06;35.10;;;29.35;;
59127;SDS011;44912;52.754;5.994;2023-06-22T03:28:33;31.20;;;27.92;;
59127;SDS011;44912;52.754;5.994;2023-06-22T03:30:59;32.20;;;28.80;;
59127;SDS011;44912;52.754;5.994;2023-06-22T03:33:24;33.13;;;29.05;;
59127;SDS011;44912;52.754;5.994;2023-06-22T03:35:50;32.38;;;28.85;;
59127;SDS011;44912;52.754;5.994;2023-06-22T03:38:16;32.78;;;29.33;;
59127;SDS011;44912;52.754;5.994;2023-06-22T03:40:42;31.50;;;28.05;;
59127;SDS011;44912;52.754;5.994;2023-06-22T03:43:07;32.17;;;28.70;;
59127;SDS011;44912;52.754;5.994;2023-06-22T03:45:33;28.45;;;25.20;;
59127;SDS011;44912;52.754;5.994;2023-06-22T03:48:00;28.67;;;25.67;;
59127;SDS011;44912;52.754;5.994;2023-06-22T03:50:25;27.23;;;24.55;;
59127;SDS011;44912;52.754;5.994;2023-06-22T03:52:51;28.35;;;24.13;;
59127;SDS011;44912;52.754;5.994;2023-06-22T03:55:17;26.83;;;23.90;;
59127;SDS011;44912;52.754;5.994;2023-06-22T03:57:44;29.23;;;26.05;;
59127;SDS011;44912;52.754;5.994;2023-06-22T04:00:10;30.38;;;26.55;;
59127;SDS011;44912;52.754;5.994;2023-06-22T04:02:36;29.13;;;26.13;;
59127;SDS011;44912;52.754;5.994;2023-06-22T04:05:01;31.55;;;26.55;;
59127;SDS011;44912;52.754;5.994;2023-06-22T04:07:27;31.65;;;26.88;;
59127;SDS011;44912;52.754;5.994;2023-06-22T04:09:52;30.75;;;25.85;;
59127;SDS011;44912;52.754;5.994;2023-06-22T04:12:18;31.17;;;26.73;;
59127;SDS011;44912;52.754;5.994;2023-06-22T04:14:44;30.70;;;26.50;;
59127;SDS011;44912;52.754;5.994;2023-06-22T04:17:09;35.50;;;28.02;;
59127;SDS011;44912;52.754;5.994;2023-06-22T04:19:35;27.77;;;24.65;;
59127;SDS011;44912;52.754;5.994;2023-06-22T04:22:00;29.65;;;26.10;;
59127;SDS011;44912;52.754;5.994;2023-06-22T04:24:25;28.38;;;25.38;;
59127;SDS011;44912;52.754;5.994;2023-06-22T04:26:51;28.23;;;25.23;;
59127;SDS011;44912;52.754;5.994;2023-06-22T04:29:19;25.30;;;22.65;;
59127;SDS011;44912;52.754;5.994;2023-06-22T04:31:45;29.08;;;24.88;;
59127;SDS011;44912;52.754;5.994;2023-06-22T04:34:15;30.52;;;26.95;;
59127;SDS011;44912;52.754;5.994;2023-06-22T04:36:41;31.33;;;27.92;;
59127;SDS011;44912;52.754;5.994;2023-06-22T04:39:08;37.05;;;30.63;;
59127;SDS011;44912;52.754;5.994;2023-06-22T04:41:34;30.48;;;26.85;;
59127;SDS011;44912;52.754;5.994;2023-06-22T04:44:10;32.38;;;28.83;;
59127;SDS011;44912;52.754;5.994;2023-06-22T04:46:58;28.77;;;25.67;;
59127;SDS011;44912;52.754;5.994;2023-06-22T04:49:27;30.60;;;26.95;;
59127;SDS011;44912;52.754;5.994;2023-06-22T04:51:57;28.80;;;25.60;;
59127;SDS011;44912;52.754;5.994;2023-06-22T04:54:24;33.45;;;27.83;;
59127;SDS011;44912;52.754;5.994;2023-06-22T04:56:49;29.63;;;26.17;;
59127;SDS011;44912;52.754;5.994;2023-06-22T04:59:25;30.05;;;26.85;;
59127;SDS011;44912;52.754;5.994;2023-06-22T05:02:00;30.02;;;26.63;;
59127;SDS011;44912;52.754;5.994;2023-06-22T05:04:27;31.42;;;28.13;;
59127;SDS011;44912;52.754;5.994;2023-06-22T05:06:56;30.05;;;26.65;;
59127;SDS011;44912;52.754;5.994;2023-06-22T05:09:22;27.55;;;24.63;;
59127;SDS011;44912;52.754;5.994;2023-06-22T05:11:48;28.42;;;25.17;;
59127;SDS011;44912;52.754;5.994;2023-06-22T05:14:13;33.78;;;30.05;;
59127;SDS011;44912;52.754;5.994;2023-06-22T05:16:40;36.35;;;31.10;;
59127;SDS011;44912;52.754;5.994;2023-06-22T05:19:06;35.10;;;30.05;;
59127;SDS011;44912;52.754;5.994;2023-06-22T05:21:32;32.17;;;28.00;;
59127;SDS011;44912;52.754;5.994;2023-06-22T05:23:58;35.83;;;27.92;;
59127;SDS011;44912;52.754;5.994;2023-06-22T05:26:26;31.63;;;28.30;;
59127;SDS011;44912;52.754;5.994;2023-06-22T05:28:52;33.88;;;28.83;;
59127;SDS011;44912;52.754;5.994;2023-06-22T05:31:17;34.15;;;30.48;;
59127;SDS011;44912;52.754;5.994;2023-06-22T05:33:45;34.72;;;29.38;;
59127;SDS011;44912;52.754;5.994;2023-06-22T05:36:12;34.47;;;30.00;;
59127;SDS011;44912;52.754;5.994;2023-06-22T05:38:38;38.38;;;32.28;;
59127;SDS011;44912;52.754;5.994;2023-06-22T05:41:04;34.70;;;30.58;;
59127;SDS011;44912;52.754;5.994;2023-06-22T05:43:30;32.45;;;28.58;;
59127;SDS011;44912;52.754;5.994;2023-06-22T05:45:56;34.88;;;30.17;;
59127;SDS011;44912;52.754;5.994;2023-06-22T05:48:22;35.72;;;30.63;;
59127;SDS011;44912;52.754;5.994;2023-06-22T05:50:47;34.70;;;28.52;;
59127;SDS011;44912;52.754;5.994;2023-06-22T05:53:13;34.17;;;29.35;;
59127;SDS011;44912;52.754;5.994;2023-06-22T05:55:39;35.75;;;31.20;;
59127;SDS011;44912;52.754;5.994;2023-06-22T05:58:04;33.78;;;28.73;;
59127;SDS011;44912;52.754;5.994;2023-06-22T06:00:30;34.15;;;28.40;;
59127;SDS011;44912;52.754;5.994;2023-06-22T06:02:56;34.83;;;29.15;;
59127;SDS011;44912;52.754;5.994;2023-06-22T06:05:21;31.13;;;26.70;;
59127;SDS011;44912;52.754;5.994;2023-06-22T06:07:48;32.65;;;27.63;;
59127;SDS011;44912;52.754;5.994;2023-06-22T06:10:14;29.95;;;26.20;;
59127;SDS011;44912;52.754;5.994;2023-06-22T06:12:40;30.85;;;27.55;;
59127;SDS011;44912;52.754;5.994;2023-06-22T06:15:05;28.50;;;25.40;;
59127;SDS011;44912;52.754;5.994;2023-06-22T06:17:31;30.63;;;26.60;;
59127;SDS011;44912;52.754;5.994;2023-06-22T06:19:58;29.65;;;26.45;;
59127;SDS011;44912;52.754;5.994;2023-06-22T06:22:24;26.15;;;23.30;;
59127;SDS011;44912;52.754;5.994;2023-06-22T06:24:49;29.40;;;25.27;;
59127;SDS011;44912;52.754;5.994;2023-06-22T06:27:15;29.77;;;24.90;;
59127;SDS011;44912;52.754;5.994;2023-06-22T06:29:43;27.98;;;24.83;;
59127;SDS011;44912;52.754;5.994;2023-06-22T06:32:10;27.27;;;23.33;;
59127;SDS011;44912;52.754;5.994;2023-06-22T06:34:36;27.30;;;23.67;;
59127;SDS011;44912;52.754;5.994;2023-06-22T06:37:01;27.38;;;23.48;;
59127;SDS011;44912;52.754;5.994;2023-06-22T06:39:27;27.52;;;23.23;;
59127;SDS011;44912;52.754;5.994;2023-06-22T06:41:53;26.45;;;21.92;;
59127;SDS011;44912;52.754;5.994;2023-06-22T06:44:18;25.50;;;21.70;;
59127;SDS011;44912;52.754;5.994;2023-06-22T06:46:44;26.20;;;21.65;;
59127;SDS011;44912;52.754;5.994;2023-06-22T06:49:09;27.00;;;23.05;;
59127;SDS011;44912;52.754;5.994;2023-06-22T06:51:35;23.80;;;20.67;;
59127;SDS011;44912;52.754;5.994;2023-06-22T06:54:01;27.67;;;21.55;;
59127;SDS011;44912;52.754;5.994;2023-06-22T06:56:28;21.20;;;18.27;;
59127;SDS011;44912;52.754;5.994;2023-06-22T06:58:54;21.52;;;19.10;;
59127;SDS011;44912;52.754;5.994;2023-06-22T07:01:20;21.85;;;18.67;;
59127;SDS011;44912;52.754;5.994;2023-06-22T07:03:46;21.80;;;18.73;;
59127;SDS011;44912;52.754;5.994;2023-06-22T07:06:12;21.65;;;17.83;;
59127;SDS011;44912;52.754;5.994;2023-06-22T07:08:38;22.73;;;18.35;;
59127;SDS011;44912;52.754;5.994;2023-06-22T07:11:04;23.08;;;17.52;;
59127;SDS011;44912;52.754;5.994;2023-06-22T07:13:30;21.80;;;17.35;;
59127;SDS011;44912;52.754;5.994;2023-06-22T07:15:56;19.20;;;15.80;;
59127;SDS011;44912;52.754;5.994;2023-06-22T07:18:21;17.45;;;13.55;;
59127;SDS011;44912;52.754;5.994;2023-06-22T07:20:47;17.73;;;14.10;;
59127;SDS011;44912;52.754;5.994;2023-06-22T07:23:12;18.98;;;15.07;;
59127;SDS011;44912;52.754;5.994;2023-06-22T07:25:38;18.33;;;14.45;;
59127;SDS011;44912;52.754;5.994;2023-06-22T07:28:04;18.40;;;14.15;;
59127;SDS011;44912;52.754;5.994;2023-06-22T07:30:32;18.23;;;13.30;;
59127;SDS011;44912;52.754;5.994;2023-06-22T07:32:59;17.33;;;13.43;;
59127;SDS011;44912;52.754;5.994;2023-06-22T07:35:28;18.65;;;13.55;;
59127;SDS011;44912;52.754;5.994;2023-06-22T07:37:57;16.27;;;13.05;;
59127;SDS011;44912;52.754;5.994;2023-06-22T07:40:22;18.90;;;12.77;;
59127;SDS011;44912;52.754;5.994;2023-06-22T07:42:48;15.95;;;13.23;;
59127;SDS011;44912;52.754;5.994;2023-06-22T07:45:16;16.10;;;13.10;;
59127;SDS011;44912;52.754;5.994;2023-06-22T07:47:42;16.15;;;12.02;;
59127;SDS011;44912;52.754;5.994;2023-06-22T07:50:07;16.65;;;12.70;;
59127;SDS011;44912;52.754;5.994;2023-06-22T07:52:33;18.38;;;13.25;;
59127;SDS011;44912;52.754;5.994;2023-06-22T07:54:59;18.20;;;12.65;;
59127;SDS011;44912;52.754;5.994;2023-06-22T07:57:24;15.25;;;12.40;;
59127;SDS011;44912;52.754;5.994;2023-06-22T07:59:58;16.85;;;11.75;;
59127;SDS011;44912;52.754;5.994;2023-06-22T08:02:31;15.68;;;12.35;;
59127;SDS011;44912;52.754;5.994;2023-06-22T08:04:56;14.55;;;12.38;;
59127;SDS011;44912;52.754;5.994;2023-06-22T08:07:22;17.00;;;12.98;;
59127;SDS011;44912;52.754;5.994;2023-06-22T08:09:47;15.10;;;11.98;;
59127;SDS011;44912;52.754;5.994;2023-06-22T08:12:14;15.73;;;12.48;;
59127;SDS011;44912;52.754;5.994;2023-06-22T08:14:39;17.30;;;12.68;;
59127;SDS011;44912;52.754;5.994;2023-06-22T08:17:06;15.25;;;12.52;;
59127;SDS011;44912;52.754;5.994;2023-06-22T08:19:32;18.45;;;12.40;;
59127;SDS011;44912;52.754;5.994;2023-06-22T08:21:58;14.52;;;12.65;;
59127;SDS011;44912;52.754;5.994;2023-06-22T08:24:23;16.80;;;11.73;;
59127;SDS011;44912;52.754;5.994;2023-06-22T08:26:51;17.90;;;12.18;;
59127;SDS011;44912;52.754;5.994;2023-06-22T08:29:16;15.93;;;11.43;;
59127;SDS011;44912;52.754;5.994;2023-06-22T08:31:42;17.05;;;12.32;;
59127;SDS011;44912;52.754;5.994;2023-06-22T08:34:08;16.52;;;12.32;;
59127;SDS011;44912;52.754;5.994;2023-06-22T08:36:33;16.10;;;12.95;;
59127;SDS011;44912;52.754;5.994;2023-06-22T08:39:06;14.63;;;10.90;;
59127;SDS011;44912;52.754;5.994;2023-06-22T08:41:33;14.52;;;11.25;;
59127;SDS011;44912;52.754;5.994;2023-06-22T08:43:58;13.40;;;10.65;;
59127;SDS011;44912;52.754;5.994;2023-06-22T08:46:24;15.38;;;11.52;;
59127;SDS011;44912;52.754;5.994;2023-06-22T08:48:55;17.27;;;11.13;;
59127;SDS011;44912;52.754;5.994;2023-06-22T08:51:22;15.75;;;11.90;;
59127;SDS011;44912;52.754;5.994;2023-06-22T08:53:48;17.20;;;10.63;;
59127;SDS011;44912;52.754;5.994;2023-06-22T08:56:14;15.30;;;10.80;;
59127;SDS011;44912;52.754;5.994;2023-06-22T08:58:39;15.30;;;11.23;;
59127;SDS011;44912;52.754;5.994;2023-06-22T09:01:05;15.98;;;11.15;;
59127;SDS011;44912;52.754;5.994;2023-06-22T09:03:30;15.48;;;11.25;;
59127;SDS011;44912;52.754;5.994;2023-06-22T09:05:57;14.52;;;10.65;;
59127;SDS011;44912;52.754;5.994;2023-06-22T09:08:23;13.27;;;10.80;;
59127;SDS011;44912;52.754;5.994;2023-06-22T09:10:49;15.20;;;10.80;;
59127;SDS011;44912;52.754;5.994;2023-06-22T09:13:14;13.18;;;10.68;;
59127;SDS011;44912;52.754;5.994;2023-06-22T09:15:40;14.30;;;10.13;;
59127;SDS011;44912;52.754;5.994;2023-06-22T09:18:05;11.85;;;9.15;;
59127;SDS011;44912;52.754;5.994;2023-06-22T09:20:31;12.07;;;9.57;;
59127;SDS011;44912;52.754;5.994;2023-06-22T09:22:57;14.52;;;9.05;;
59127;SDS011;44912;52.754;5.994;2023-06-22T09:25:23;13.40;;;9.50;;
59127;SDS011;44912;52.754;5.994;2023-06-22T09:27:48;12.95;;;9.15;;
59127;SDS011;44912;52.754;5.994;2023-06-22T09:30:14;12.27;;;8.70;;
59127;SDS011;44912;52.754;5.994;2023-06-22T09:32:39;12.25;;;8.45;;
59127;SDS011;44912;52.754;5.994;2023-06-22T09:35:05;12.60;;;9.23;;
59127;SDS011;44912;52.754;5.994;2023-06-22T09:37:31;11.30;;;8.60;;
59127;SDS011;44912;52.754;5.994;2023-06-22T09:39:57;10.63;;;8.18;;
59127;SDS011;44912;52.754;5.994;2023-06-22T09:42:22;12.52;;;8.43;;
59127;SDS011;44912;52.754;5.994;2023-06-22T09:44:48;11.40;;;8.45;;
59127;SDS011;44912;52.754;5.994;2023-06-22T09:47:14;11.45;;;8.63;;
59127;SDS011;44912;52.754;5.994;2023-06-22T09:49:39;12.18;;;8.82;;
59127;SDS011;44912;52.754;5.994;2023-06-22T09:52:05;12.23;;;8.40;;
59127;SDS011;44912;52.754;5.994;2023-06-22T09:54:31;11.27;;;8.40;;
59127;SDS011;44912;52.754;5.994;2023-06-22T09:56:56;9.52;;;7.55;;
59127;SDS011;44912;52.754;5.994;2023-06-22T09:59:22;11.43;;;8.10;;
59127;SDS011;44912;52.754;5.994;2023-06-22T10:01:47;11.40;;;7.97;;
59127;SDS011;44912;52.754;5.994;2023-06-22T10:04:13;11.65;;;7.53;;
59127;SDS011;44912;52.754;5.994;2023-06-22T10:06:38;10.27;;;6.80;;
59127;SDS011;44912;52.754;5.994;2023-06-22T10:09:05;9.98;;;6.68;;
59127;SDS011;44912;52.754;5.994;2023-06-22T10:11:32;11.40;;;6.05;;
59127;SDS011;44912;52.754;5.994;2023-06-22T10:14:00;9.80;;;6.07;;
59127;SDS011;44912;52.754;5.994;2023-06-22T10:16:32;10.43;;;6.00;;
59127;SDS011;44912;52.754;5.994;2023-06-22T10:18:58;10.23;;;5.50;;
59127;SDS011;44912;52.754;5.994;2023-06-22T10:21:24;10.98;;;6.32;;
59127;SDS011;44912;52.754;5.994;2023-06-22T10:23:52;8.70;;;5.57;;
59127;SDS011;44912;52.754;5.994;2023-06-22T10:26:17;8.73;;;5.45;;
59127;SDS011;44912;52.754;5.994;2023-06-22T10:28:43;10.07;;;4.90;;
59127;SDS011;44912;52.754;5.994;2023-06-22T10:31:08;9.00;;;6.15;;
59127;SDS011;44912;52.754;5.994;2023-06-22T10:33:34;10.15;;;5.95;;
59127;SDS011;44912;52.754;5.994;2023-06-22T10:35:59;9.68;;;5.07;;
59127;SDS011;44912;52.754;5.994;2023-06-22T10:38:25;8.40;;;4.50;;
59127;SDS011;44912;52.754;5.994;2023-06-22T10:40:50;9.10;;;5.60;;
59127;SDS011;44912;52.754;5.994;2023-06-22T10:43:16;11.05;;;4.88;;
59127;SDS011;44912;52.754;5.994;2023-06-22T10:45:42;9.95;;;5.72;;
59127;SDS011;44912;52.754;5.994;2023-06-22T10:48:07;8.82;;;5.65;;
59127;SDS011;44912;52.754;5.994;2023-06-22T10:50:33;11.05;;;5.72;;
59127;SDS011;44912;52.754;5.994;2023-06-22T10:52:58;7.88;;;4.32;;
59127;SDS011;44912;52.754;5.994;2023-06-22T10:55:24;8.05;;;4.55;;
59127;SDS011;44912;52.754;5.994;2023-06-22T10:57:49;7.30;;;3.85;;
59127;SDS011;44912;52.754;5.994;2023-06-22T11:00:15;8.20;;;5.10;;
59127;SDS011;44912;52.754;5.994;2023-06-22T11:02:41;10.45;;;4.90;;
59127;SDS011;44912;52.754;5.994;2023-06-22T11:05:07;7.65;;;3.90;;
59127;SDS011;44912;52.754;5.994;2023-06-22T11:07:32;9.23;;;4.85;;
59127;SDS011;44912;52.754;5.994;2023-06-22T11:09:58;7.65;;;4.32;;
59127;SDS011;44912;52.754;5.994;2023-06-22T11:12:23;9.32;;;4.80;;
59127;SDS011;44912;52.754;5.994;2023-06-22T11:14:49;8.07;;;4.45;;
59127;SDS011;44912;52.754;5.994;2023-06-22T11:17:16;8.98;;;4.57;;
59127;SDS011;44912;52.754;5.994;2023-06-22T11:19:43;8.23;;;4.68;;
59127;SDS011;44912;52.754;5.994;2023-06-22T11:22:09;6.75;;;4.07;;
59127;SDS011;44912;52.754;5.994;2023-06-22T11:24:35;8.20;;;4.85;;
59127;SDS011;44912;52.754;5.994;2023-06-22T11:27:00;8.73;;;3.95;;
59127;SDS011;44912;52.754;5.994;2023-06-22T11:29:26;7.85;;;3.63;;
59127;SDS011;44912;52.754;5.994;2023-06-22T11:31:51;8.30;;;4.47;;
59127;SDS011;44912;52.754;5.994;2023-06-22T11:34:17;7.43;;;3.92;;
59127;SDS011;44912;52.754;5.994;2023-06-22T11:36:44;8.02;;;4.45;;
59127;SDS011;44912;52.754;5.994;2023-06-22T11:39:10;7.85;;;4.15;;
59127;SDS011;44912;52.754;5.994;2023-06-22T11:41:35;8.00;;;4.70;;
59127;SDS011;44912;52.754;5.994;2023-06-22T11:44:01;7.97;;;5.30;;
59127;SDS011;44912;52.754;5.994;2023-06-22T11:46:29;8.73;;;4.75;;
59127;SDS011;44912;52.754;5.994;2023-06-22T11:48:55;7.43;;;4.30;;
59127;SDS011;44912;52.754;5.994;2023-06-22T11:51:20;7.40;;;4.57;;
59127;SDS011;44912;52.754;5.994;2023-06-22T11:53:46;7.18;;;4.65;;
59127;SDS011;44912;52.754;5.994;2023-06-22T11:56:11;7.28;;;4.05;;
59127;SDS011;44912;52.754;5.994;2023-06-22T11:58:37;8.50;;;4.10;;
59127;SDS011;44912;52.754;5.994;2023-06-22T12:01:02;9.02;;;4.97;;
59127;SDS011;44912;52.754;5.994;2023-06-22T12:03:28;10.75;;;5.40;;
59127;SDS011;44912;52.754;5.994;2023-06-22T12:05:54;10.02;;;5.38;;
59127;SDS011;44912;52.754;5.994;2023-06-22T12:08:19;7.57;;;4.75;;
59127;SDS011;44912;52.754;5.994;2023-06-22T12:10:45;8.20;;;4.28;;
59127;SDS011;44912;52.754;5.994;2023-06-22T12:13:10;8.93;;;4.30;;
59127;SDS011;44912;52.754;5.994;2023-06-22T12:15:36;8.57;;;4.85;;
59127;SDS011;44912;52.754;5.994;2023-06-22T12:18:01;8.38;;;4.82;;
59127;SDS011;44912;52.754;5.994;2023-06-22T12:20:27;10.48;;;5.25;;
59127;SDS011;44912;52.754;5.994;2023-06-22T12:22:53;7.68;;;4.75;;
59127;SDS011;44912;52.754;5.994;2023-06-22T12:25:21;8.07;;;4.65;;
59127;SDS011;44912;52.754;5.994;2023-06-22T12:27:47;8.90;;;4.68;;
59127;SDS011;44912;52.754;5.994;2023-06-22T12:30:12;8.90;;;5.93;;
59127;SDS011;44912;52.754;5.994;2023-06-22T12:32:38;9.50;;;5.30;;
59127;SDS011;44912;52.754;5.994;2023-06-22T12:35:03;10.02;;;5.30;;
59127;SDS011;44912;52.754;5.994;2023-06-22T12:37:29;7.72;;;5.32;;
59127;SDS011;44912;52.754;5.994;2023-06-22T12:39:56;9.50;;;5.28;;
59127;SDS011;44912;52.754;5.994;2023-06-22T12:42:22;7.85;;;5.40;;
59127;SDS011;44912;52.754;5.994;2023-06-22T12:44:48;8.70;;;5.43;;
59127;SDS011;44912;52.754;5.994;2023-06-22T12:47:13;8.43;;;5.32;;
59127;SDS011;44912;52.754;5.994;2023-06-22T12:49:39;9.18;;;5.30;;
59127;SDS011;44912;52.754;5.994;2023-06-22T12:52:10;8.80;;;5.20;;
59127;SDS011;44912;52.754;5.994;2023-06-22T12:54:36;8.43;;;5.25;;
59127;SDS011;44912;52.754;5.994;2023-06-22T12:57:02;9.05;;;4.93;;
59127;SDS011;44912;52.754;5.994;2023-06-22T12:59:27;10.15;;;5.22;;
59127;SDS011;44912;52.754;5.994;2023-06-22T13:01:53;6.93;;;4.40;;
59127;SDS011;44912;52.754;5.994;2023-06-22T13:04:18;8.38;;;4.38;;
59127;SDS011;44912;52.754;5.994;2023-06-22T13:06:44;7.35;;;4.70;;
59127;SDS011;44912;52.754;5.994;2023-06-22T13:09:13;7.93;;;4.43;;
59127;SDS011;44912;52.754;5.994;2023-06-22T13:11:39;7.18;;;4.65;;
59127;SDS011;44912;52.754;5.994;2023-06-22T13:14:05;9.68;;;4.90;;
59127;SDS011;44912;52.754;5.994;2023-06-22T13:16:30;8.25;;;4.95;;
59127;SDS011;44912;52.754;5.994;2023-06-22T13:18:56;9.70;;;5.55;;
59127;SDS011;44912;52.754;5.994;2023-06-22T13:21:21;7.80;;;4.50;;
59127;SDS011;44912;52.754;5.994;2023-06-22T13:23:47;8.60;;;4.80;;
59127;SDS011;44912;52.754;5.994;2023-06-22T13:26:13;8.15;;;4.90;;
59127;SDS011;44912;52.754;5.994;2023-06-22T13:28:38;7.55;;;4.55;;
59127;SDS011;44912;52.754;5.994;2023-06-22T13:31:04;8.88;;;4.82;;
59127;SDS011;44912;52.754;5.994;2023-06-22T13:33:29;9.52;;;4.97;;
59127;SDS011;44912;52.754;5.994;2023-06-22T13:35:55;9.88;;;4.97;;
59127;SDS011;44912;52.754;5.994;2023-06-22T13:38:20;7.22;;;4.65;;
59127;SDS011;44912;52.754;5.994;2023-06-22T13:40:47;7.43;;;4.45;;
59127;SDS011;44912;52.754;5.994;2023-06-22T13:43:13;7.32;;;4.68;;
59127;SDS011;44912;52.754;5.994;2023-06-22T13:45:39;8.02;;;4.82;;
59127;SDS011;44912;52.754;5.994;2023-06-22T13:48:05;9.48;;;5.07;;
59127;SDS011;44912;52.754;5.994;2023-06-22T13:50:31;7.68;;;5.00;;
59127;SDS011;44912;52.754;5.994;2023-06-22T13:52:56;9.43;;;4.80;;
59127;SDS011;44912;52.754;5.994;2023-06-22T13:55:22;7.53;;;4.88;;
59127;SDS011;44912;52.754;5.994;2023-06-22T13:57:48;10.35;;;5.43;;
59127;SDS011;44912;52.754;5.994;2023-06-22T14:00:14;8.60;;;5.55;;
59127;SDS011;44912;52.754;5.994;2023-06-22T14:02:40;10.00;;;5.28;;
59127;SDS011;44912;52.754;5.994;2023-06-22T14:05:06;8.60;;;5.20;;
59127;SDS011;44912;52.754;5.994;2023-06-22T14:07:32;9.68;;;5.50;;
59127;SDS011;44912;52.754;5.994;2023-06-22T14:09:59;9.13;;;5.70;;
59127;SDS011;44912;52.754;5.994;2023-06-22T14:12:25;7.15;;;5.38;;
59127;SDS011;44912;52.754;5.994;2023-06-22T14:14:51;8.40;;;5.40;;
59127;SDS011;44912;52.754;5.994;2023-06-22T14:17:16;8.20;;;4.90;;
59127;SDS011;44912;52.754;5.994;2023-06-22T14:19:42;9.13;;;5.93;;
59127;SDS011;44912;52.754;5.994;2023-06-22T14:22:07;8.95;;;6.03;;
59127;SDS011;44912;52.754;5.994;2023-06-22T14:24:33;8.15;;;5.85;;
59127;SDS011;44912;52.754;5.994;2023-06-22T14:26:59;10.05;;;6.65;;